Time;durP1;ratioP1;P1;durP2;ratioP2;P2;SDS_P1;SDS_P2;PMS_P1;PMS_P2;Temp;Humidity;BMP_temperature;BMP_pressure;BME280_temperature;BME280_humidity;BME280_pressure;Samples;Min_cycle;Max_cycle;Signal;HPM_P1;HPM_P2
2023/02/09 00:01:12;;;;;;;4.20;3.27;;;-1.80;98.00;;;;;;5034317;28;20463;-64
2023/02/09 00:03:40;;;;;;;4.43;2.87;;;-1.90;98.00;;;;;;5034246;28;20463;-64
2023/02/09 00:06:09;;;;;;;5.20;3.30;;;-2.00;98.00;;;;;;5034432;28;20456;-64
2023/02/09 00:08:36;;;;;;;3.97;2.43;;;-2.10;98.00;;;;;;5034136;28;20491;-64
2023/02/09 00:11:08;;;;;;;2.50;2.00;;;-2.30;98.00;;;;;;5032997;28;20605;-65
2023/02/09 00:13:35;;;;;;;6.50;2.80;;;-2.30;98.00;;;;;;5033966;28;20502;-64
2023/02/09 00:16:03;;;;;;;4.77;3.17;;;-2.40;98.00;;;;;;5034244;28;20461;-64
2023/02/09 00:18:32;;;;;;;5.17;2.70;;;-2.40;98.00;;;;;;5033983;28;20450;-64
2023/02/09 00:21:02;;;;;;;2.57;2.07;;;-2.50;98.00;;;;;;5033908;28;20472;-64
2023/02/09 00:23:31;;;;;;;2.60;2.10;;;-2.60;98.00;;;;;;5032530;28;20833;-65
2023/02/09 00:25:59;;;;;;;3.17;2.40;;;-2.50;98.00;;;;;;5034180;28;20463;-64
2023/02/09 00:28:28;;;;;;;3.67;3.03;;;-2.40;98.00;;;;;;5033726;28;20488;-64
2023/02/09 00:30:55;;;;;;;7.17;2.63;;;-2.40;98.00;;;;;;5033678;28;20543;-64
2023/02/09 00:33:22;;;;;;;2.60;2.10;;;-2.60;98.00;;;;;;5033797;28;20457;-64
2023/02/09 00:35:49;;;;;;;3.17;2.10;;;-2.50;98.00;;;;;;5033970;28;20460;-65
2023/02/09 00:38:17;;;;;;;5.00;2.80;;;-2.40;98.00;;;;;;5034165;28;20862;-64
2023/02/09 00:40:44;;;;;;;2.83;2.43;;;-2.30;98.00;;;;;;5033837;28;20876;-64
2023/02/09 00:43:11;;;;;;;2.97;2.50;;;-2.40;98.00;;;;;;5033539;28;20946;-64
2023/02/09 00:45:40;;;;;;;5.70;3.10;;;-2.50;98.00;;;;;;5032173;28;20499;-64
2023/02/09 00:48:07;;;;;;;6.50;3.30;;;-2.50;98.00;;;;;;5033452;28;20537;-64
2023/02/09 00:50:34;;;;;;;6.00;2.93;;;-2.50;98.00;;;;;;5033594;28;20467;-64
2023/02/09 00:53:01;;;;;;;2.20;2.07;;;-2.50;98.00;;;;;;5033281;28;20460;-64
2023/02/09 00:55:28;;;;;;;4.10;3.03;;;-2.50;98.00;;;;;;5033344;28;20456;-64
2023/02/09 00:57:55;;;;;;;7.00;2.57;;;-2.60;98.00;;;;;;5033256;28;20458;-64
2023/02/09 01:00:23;;;;;;;5.43;2.60;;;-2.70;98.00;;;;;;5033337;28;20455;-64
2023/02/09 01:02:52;;;;;;;3.87;3.03;;;-3.00;98.00;;;;;;5033472;28;20520;-65
2023/02/09 01:05:19;;;;;;;6.32;2.97;;;-3.20;98.00;;;;;;5033257;28;20461;-64
2023/02/09 01:07:46;;;;;;;4.47;3.10;;;-3.30;98.00;;;;;;5033064;28;20224;-64
2023/02/09 01:10:13;;;;;;;2.87;2.37;;;-3.20;98.00;;;;;;5033031;28;20463;-64
2023/02/09 01:12:40;;;;;;;3.10;2.10;;;-3.20;98.00;;;;;;5033005;28;20465;-65
2023/02/09 01:15:09;;;;;;;1.93;1.87;;;-3.20;98.00;;;;;;5032881;28;20464;-64
2023/02/09 01:17:36;;;;;;;10.50;3.17;;;-3.20;98.00;;;;;;5033022;28;20451;-65
2023/02/09 01:20:07;;;;;;;2.55;2.35;;;-3.40;98.00;;;;;;5032688;28;20626;-64
2023/02/09 01:22:36;;;;;;;7.32;2.92;;;-3.50;98.00;;;;;;5033093;28;20215;-64
2023/02/09 01:25:03;;;;;;;5.15;3.80;;;-3.30;98.00;;;;;;5032631;28;20212;-64
2023/02/09 01:27:30;;;;;;;5.05;2.88;;;-3.40;98.00;;;;;;5032764;28;20229;-64
2023/02/09 01:29:57;;;;;;;5.78;2.45;;;-3.40;98.00;;;;;;5032694;28;20235;-64
2023/02/09 01:32:25;;;;;;;3.35;2.70;;;-3.20;98.00;;;;;;5033001;28;20613;-64
2023/02/09 01:34:52;;;;;;;2.90;2.72;;;-3.00;98.00;;;;;;5032504;28;20266;-64
2023/02/09 01:37:21;;;;;;;5.53;2.97;;;-3.10;98.00;;;;;;5032666;28;20254;-64
2023/02/09 01:39:49;;;;;;;4.40;3.13;;;-3.20;98.00;;;;;;5032685;28;20486;-65
2023/02/09 01:42:17;;;;;;;4.45;2.65;;;-3.30;98.00;;;;;;5032767;28;20470;-64
2023/02/09 01:45:08;;;;;;;3.85;2.78;;;-3.30;98.00;;;;;;5032617;28;20205;-64
2023/02/09 01:47:43;;;;;;;1.98;1.60;;;-3.30;98.00;;;;;;5032364;28;20224;-64
2023/02/09 01:50:11;;;;;;;2.65;2.47;;;-3.30;98.00;;;;;;5032582;28;20208;-65
2023/02/09 01:52:41;;;;;;;8.63;4.22;;;-3.20;98.00;;;;;;5032310;28;20196;-64
2023/02/09 01:55:12;;;;;;;4.13;2.63;;;-3.00;98.00;;;;;;5032236;28;20667;-64
2023/02/09 01:57:45;;;;;;;3.38;2.85;;;-2.90;98.00;;;;;;5032402;28;20461;-64
2023/02/09 02:00:15;;;;;;;7.18;2.80;;;-2.80;98.00;;;;;;5030820;28;20205;-64
2023/02/09 02:02:44;;;;;;;4.90;2.50;;;-2.90;98.00;;;;;;5032075;28;20207;-64
2023/02/09 02:05:12;;;;;;;2.20;2.03;;;-3.00;98.00;;;;;;5031914;28;20458;-64
2023/02/09 02:07:45;;;;;;;5.78;2.55;;;-3.10;98.00;;;;;;5031915;28;20478;-63
2023/02/09 02:10:13;;;;;;;5.22;3.38;;;-3.00;98.00;;;;;;5032142;28;20226;-64
2023/02/09 02:12:40;;;;;;;1.92;1.70;;;-3.00;98.00;;;;;;5031925;28;20702;-65
2023/02/09 02:15:08;;;;;;;3.33;2.73;;;-2.90;98.00;;;;;;5031698;28;20208;-64
2023/02/09 02:17:48;;;;;;;6.43;3.28;;;-2.70;98.00;;;;;;5031792;28;20454;-64
2023/02/09 02:21:07;;;;;;;3.13;2.13;;;-2.90;98.00;;;;;;5031669;28;20208;-64
2023/02/09 02:23:43;;;;;;;2.00;1.55;;;-3.00;98.00;;;;;;5027307;28;20212;-64
2023/02/09 02:26:46;;;;;;;3.95;3.00;;;-3.20;98.00;;;;;;5031648;28;20242;-64
2023/02/09 02:29:38;;;;;;;4.97;2.90;;;-3.40;98.00;;;;;;5031490;28;20231;-65
2023/02/09 02:32:39;;;;;;;11.98;3.78;;;-3.50;98.00;;;;;;5032015;28;20219;-64
2023/02/09 02:35:13;;;;;;;3.80;2.55;;;-3.50;98.00;;;;;;5031528;28;20220;-64
2023/02/09 02:37:54;;;;;;;2.65;2.20;;;-3.70;98.00;;;;;;5030409;28;20206;-63
2023/02/09 02:40:31;;;;;;;6.25;1.80;;;-3.90;98.00;;;;;;5031460;28;20212;-64
2023/02/09 02:43:05;;;;;;;3.33;2.22;;;-4.00;98.00;;;;;;5031521;28;20207;-64
2023/02/09 02:45:40;;;;;;;2.75;2.53;;;-3.80;98.00;;;;;;5031215;28;20207;-64
2023/02/09 02:48:18;;;;;;;10.13;3.35;;;-3.60;98.00;;;;;;5030887;28;20223;-64
2023/02/09 02:50:49;;;;;;;6.75;2.55;;;-3.60;98.00;;;;;;5031291;28;20204;-64
2023/02/09 02:53:18;;;;;;;6.32;3.00;;;-3.80;98.00;;;;;;5031476;28;20870;-64
2023/02/09 02:55:47;;;;;;;5.72;2.55;;;-3.90;98.00;;;;;;5031475;28;20211;-64
2023/02/09 02:58:18;;;;;;;4.13;2.08;;;-4.00;98.00;;;;;;5031324;28;20208;-64
2023/02/09 03:00:50;;;;;;;5.03;2.90;;;-4.10;98.00;;;;;;5030515;28;20288;-64
2023/02/09 03:03:21;;;;;;;9.90;3.40;;;-4.10;98.00;;;;;;5031445;28;20740;-64
2023/02/09 03:05:50;;;;;;;2.15;2.03;;;-4.10;98.00;;;;;;5030921;28;20219;-64
2023/02/09 03:08:18;;;;;;;5.50;2.75;;;-4.10;98.00;;;;;;5031066;28;20220;-64
2023/02/09 03:10:45;;;;;;;2.72;2.60;;;-4.00;98.00;;;;;;5031398;28;20196;-64
2023/02/09 03:13:38;;;;;;;2.92;2.25;;;-4.00;98.00;;;;;;5031607;28;20211;-64
2023/02/09 03:16:19;;;;;;;3.92;2.58;;;-4.10;98.00;;;;;;5031326;28;20648;-64
2023/02/09 03:19:02;;;;;;;5.03;2.95;;;-4.00;98.00;;;;;;5030398;28;20235;-64
2023/02/09 03:21:41;;;;;;;3.78;2.50;;;-3.90;98.00;;;;;;5031635;28;20356;-64
2023/02/09 03:24:15;;;;;;;5.47;3.30;;;-3.80;98.00;;;;;;5031291;28;20215;-64
2023/02/09 03:26:49;;;;;;;2.58;2.40;;;-3.70;98.00;;;;;;5031715;28;20616;-64
2023/02/09 03:29:19;;;;;;;5.47;1.90;;;-3.70;98.00;;;;;;5031627;28;20223;-63
2023/02/09 03:31:47;;;;;;;5.70;2.53;;;-3.70;98.00;;;;;;5031412;28;20266;-63
2023/02/09 03:34:16;;;;;;;3.35;2.40;;;-3.60;98.00;;;;;;5031110;28;20689;-64
2023/02/09 03:36:45;;;;;;;11.60;3.47;;;-3.70;98.00;;;;;;5031065;28;20287;-64
2023/02/09 03:39:12;;;;;;;4.22;2.70;;;-3.70;98.00;;;;;;5031101;28;20200;-64
2023/02/09 03:41:40;;;;;;;2.00;1.88;;;-3.80;98.00;;;;;;5030387;28;20291;-64
2023/02/09 03:46:51;;;;;;;3.10;2.90;;;-3.70;98.00;;;;;;5031804;28;20203;-64
2023/02/09 03:49:20;;;;;;;3.95;2.78;;;-3.90;98.00;;;;;;5031414;28;20633;-64
2023/02/09 03:51:47;;;;;;;5.55;2.75;;;-4.00;98.00;;;;;;5031070;28;20208;-64
2023/02/09 03:54:14;;;;;;;6.38;4.10;;;-4.00;98.00;;;;;;5031024;28;20204;-64
2023/02/09 03:56:41;;;;;;;5.78;2.50;;;-4.20;98.00;;;;;;5031102;28;20193;-63
2023/02/09 03:59:09;;;;;;;8.05;2.85;;;-4.30;98.00;;;;;;5032519;28;20196;-64
2023/02/09 04:01:36;;;;;;;5.72;3.22;;;-4.40;98.00;;;;;;5033309;28;20224;-64
2023/02/09 04:04:04;;;;;;;2.00;1.80;;;-4.40;98.00;;;;;;5032748;28;20207;-64
2023/02/09 04:06:34;;;;;;;5.15;2.58;;;-4.30;98.00;;;;;;5034390;28;20663;-63
2023/02/09 04:09:02;;;;;;;2.95;2.40;;;-4.00;98.00;;;;;;5033891;28;20322;-64
2023/02/09 04:11:29;;;;;;;4.95;2.83;;;-3.90;98.00;;;;;;5034319;28;20196;-64
2023/02/09 04:13:57;;;;;;;2.40;2.00;;;-3.80;98.00;;;;;;5033006;28;20587;-64
2023/02/09 04:16:24;;;;;;;7.00;2.50;;;-3.90;98.00;;;;;;5034437;28;20246;-64
2023/02/09 04:18:51;;;;;;;2.20;1.75;;;-3.70;98.00;;;;;;5034096;28;20219;-64
2023/02/09 04:21:19;;;;;;;4.05;3.22;;;-3.80;98.00;;;;;;5034133;28;20215;-64
2023/02/09 04:23:47;;;;;;;2.30;2.10;;;-3.90;98.00;;;;;;5034035;28;20302;-64
2023/02/09 04:26:15;;;;;;;3.17;2.53;;;-4.10;98.00;;;;;;5033912;28;20290;-64
2023/02/09 04:28:42;;;;;;;4.90;2.85;;;-4.30;98.00;;;;;;5033992;28;20227;-64
2023/02/09 04:31:10;;;;;;;3.05;2.85;;;-4.50;98.00;;;;;;5034226;28;20211;-63
2023/02/09 04:33:37;;;;;;;5.22;3.10;;;-4.70;98.00;;;;;;5033910;28;20672;-64
2023/02/09 04:36:05;;;;;;;2.60;2.40;;;-4.90;98.00;;;;;;5033887;28;20207;-64
2023/02/09 04:38:32;;;;;;;2.88;2.28;;;-5.00;98.00;;;;;;5033776;28;20196;-64
2023/02/09 04:41:02;;;;;;;5.40;2.00;;;-4.90;98.00;;;;;;5033557;28;20277;-63
2023/02/09 04:43:30;;;;;;;3.25;2.00;;;-5.00;98.00;;;;;;5033719;28;20208;-63
2023/02/09 04:46:00;;;;;;;8.55;3.28;;;-4.90;98.00;;;;;;5033672;28;20200;-64
2023/02/09 04:48:28;;;;;;;2.97;2.20;;;-4.80;98.00;;;;;;5033694;28;20228;-64
2023/02/09 04:50:56;;;;;;;2.58;2.38;;;-4.50;98.00;;;;;;5033388;28;20208;-63
2023/02/09 04:53:23;;;;;;;3.65;2.03;;;-4.60;98.00;;;;;;5033558;28;20200;-64
2023/02/09 04:55:51;;;;;;;2.85;2.65;;;-4.70;98.00;;;;;;5033601;28;20552;-64
2023/02/09 05:01:05;;;;;;;5.38;2.50;;;-4.80;98.00;;;;;;5033393;28;20207;-63
2023/02/09 05:03:33;;;;;;;1.55;1.45;;;-4.80;98.00;;;;;;5033399;28;20196;-64
2023/02/09 05:06:01;;;;;;;5.22;2.30;;;-4.80;98.00;;;;;;5033002;28;20196;-64
2023/02/09 05:08:29;;;;;;;5.40;2.72;;;-4.90;98.00;;;;;;5033448;28;20289;-63
2023/02/09 05:10:57;;;;;;;5.85;3.38;;;-5.00;98.00;;;;;;5032299;28;20246;-64
2023/02/09 05:13:26;;;;;;;2.67;1.92;;;-5.00;98.00;;;;;;5033218;28;20203;-63
2023/02/09 05:15:54;;;;;;;1.88;1.77;;;-5.00;98.00;;;;;;5033069;28;20211;-64
2023/02/09 05:18:21;;;;;;;2.20;1.73;;;-4.90;98.00;;;;;;5033004;28;20671;-64
2023/02/09 05:20:49;;;;;;;2.33;2.05;;;-4.80;98.00;;;;;;5032539;28;20299;-64
2023/02/09 05:23:17;;;;;;;3.13;2.13;;;-4.80;98.00;;;;;;5033290;28;20841;-63
2023/02/09 05:25:46;;;;;;;3.05;2.05;;;-4.80;98.00;;;;;;5032795;28;20388;-64
2023/02/09 05:28:13;;;;;;;2.17;2.03;;;-4.60;98.00;;;;;;5033296;28;20200;-63
2023/02/09 05:30:42;;;;;;;3.65;2.13;;;-4.40;98.00;;;;;;5033237;28;20663;-64
2023/02/09 05:33:10;;;;;;;11.18;3.33;;;-4.50;98.00;;;;;;5031588;28;20594;-64
2023/02/09 05:35:37;;;;;;;4.78;2.58;;;-4.50;98.00;;;;;;5032608;28;20196;-63
2023/02/09 05:38:04;;;;;;;3.05;2.25;;;-4.60;98.00;;;;;;5032627;28;20273;-63
2023/02/09 05:40:31;;;;;;;4.18;1.90;;;-4.80;98.00;;;;;;5032679;28;20573;-64
2023/02/09 05:42:58;;;;;;;1.63;1.63;;;-4.80;98.00;;;;;;5032590;28;20203;-63
2023/02/09 05:45:25;;;;;;;4.43;2.88;;;-4.80;98.00;;;;;;5014889;28;20643;-63
2023/02/09 05:47:54;;;;;;;3.38;2.10;;;-4.90;98.00;;;;;;5032458;28;20227;-64
2023/02/09 05:50:21;;;;;;;3.42;2.15;;;-4.90;98.00;;;;;;5032357;28;20756;-64
2023/02/09 05:52:48;;;;;;;3.22;2.33;;;-5.00;98.00;;;;;;5032388;28;20196;-64
2023/02/09 05:55:15;;;;;;;3.10;2.40;;;-5.10;98.00;;;;;;5032325;28;20207;-64
2023/02/09 05:57:42;;;;;;;3.90;2.53;;;-5.20;98.00;;;;;;5032257;28;20192;-64
2023/02/09 06:00:11;;;;;;;9.48;2.80;;;-5.10;98.00;;;;;;5030984;28;20593;-63
2023/02/09 06:02:38;;;;;;;1.65;1.63;;;-5.00;98.00;;;;;;5032424;28;20247;-64
2023/02/09 06:05:07;;;;;;;5.53;3.03;;;-4.80;98.00;;;;;;5032086;28;20547;-64
2023/02/09 06:07:34;;;;;;;6.40;2.95;;;-4.90;98.00;;;;;;5031999;28;20227;-64
2023/02/09 06:10:02;;;;;;;3.60;2.40;;;-4.80;98.00;;;;;;5031811;28;20219;-64
2023/02/09 06:12:29;;;;;;;2.50;2.30;;;-4.80;98.00;;;;;;5032140;28;20200;-64
2023/02/09 06:14:56;;;;;;;6.57;2.92;;;-4.90;98.00;;;;;;5031647;28;20270;-63
2023/02/09 06:17:23;;;;;;;2.80;2.28;;;-5.20;98.00;;;;;;5032047;28;20222;-63
2023/02/09 06:19:50;;;;;;;11.02;3.03;;;-5.40;98.00;;;;;;5030590;28;20201;-64
2023/02/09 06:22:20;;;;;;;3.28;2.35;;;-5.40;98.00;;;;;;5032037;28;20207;-64
2023/02/09 06:24:47;;;;;;;6.97;3.05;;;-5.30;98.00;;;;;;5031885;28;20222;-64
2023/02/09 06:27:15;;;;;;;4.55;2.97;;;-5.30;98.00;;;;;;5032115;28;20204;-64
2023/02/09 06:29:42;;;;;;;12.23;3.55;;;-5.20;98.00;;;;;;5031437;28;20281;-63
2023/02/09 06:32:09;;;;;;;4.40;2.65;;;-5.40;98.00;;;;;;5031624;28;20203;-63
2023/02/09 06:34:36;;;;;;;55.08;3.00;;;-5.50;98.00;;;;;;5031712;28;20208;-64
2023/02/09 06:37:03;;;;;;;4.78;3.45;;;-5.50;98.00;;;;;;5031454;28;20212;-64
2023/02/09 06:39:32;;;;;;;3.15;2.78;;;-5.30;98.00;;;;;;5031663;28;20196;-64
2023/02/09 06:42:00;;;;;;;2.78;2.60;;;-5.10;98.00;;;;;;5031294;28;20226;-63
2023/02/09 06:44:27;;;;;;;2.38;2.25;;;-5.20;98.00;;;;;;5031419;28;20195;-64
2023/02/09 06:46:54;;;;;;;3.88;2.38;;;-5.30;98.00;;;;;;5031318;28;20662;-62
2023/02/09 06:49:22;;;;;;;3.15;2.85;;;-5.20;98.00;;;;;;5030332;28;20310;-62
2023/02/09 06:51:49;;;;;;;3.95;2.60;;;-5.20;98.00;;;;;;5031358;28;20253;-62
2023/02/09 06:54:18;;;;;;;4.20;3.25;;;-5.10;98.00;;;;;;5031216;28;20211;-62
2023/02/09 06:56:47;;;;;;;4.15;2.75;;;-5.20;98.00;;;;;;5031349;28;20218;-62
2023/02/09 06:59:15;;;;;;;3.53;2.08;;;-5.30;98.00;;;;;;5031266;28;20200;-63
2023/02/09 07:01:43;;;;;;;3.85;2.38;;;-5.10;98.00;;;;;;5031395;28;20196;-71
2023/02/09 07:04:10;;;;;;;5.70;3.08;;;-5.10;98.00;;;;;;5030064;28;20199;-71
2023/02/09 07:06:38;;;;;;;4.60;2.50;;;-5.10;98.00;;;;;;5031037;28;20572;-71
2023/02/09 07:09:06;;;;;;;2.70;2.58;;;-5.10;98.00;;;;;;5029729;28;20227;-71
2023/02/09 07:11:33;;;;;;;5.30;3.08;;;-5.20;98.00;;;;;;5031310;28;20610;-70
2023/02/09 07:14:01;;;;;;;2.60;2.35;;;-5.10;98.00;;;;;;5030846;28;20212;-69
2023/02/09 07:16:28;;;;;;;4.32;3.00;;;-5.10;98.00;;;;;;5029965;28;20200;-71
2023/02/09 07:18:55;;;;;;;6.65;3.53;;;-5.30;98.00;;;;;;5031233;28;20463;-71
2023/02/09 07:21:22;;;;;;;6.20;4.13;;;-5.30;98.00;;;;;;5031356;28;20211;-69
2023/02/09 07:23:51;;;;;;;5.97;3.95;;;-5.20;98.00;;;;;;5031339;28;20610;-69
2023/02/09 07:26:19;;;;;;;5.78;3.83;;;-5.20;98.00;;;;;;5031242;28;20208;-71
2023/02/09 07:28:46;;;;;;;4.65;3.40;;;-5.20;98.00;;;;;;5031079;28;20506;-71
2023/02/09 07:31:16;;;;;;;4.60;2.25;;;-5.10;98.00;;;;;;5030963;28;20215;-70
2023/02/09 07:33:43;;;;;;;2.83;2.63;;;-5.10;98.00;;;;;;5033847;28;20612;-69
2023/02/09 07:36:12;;;;;;;2.63;2.35;;;-5.00;98.00;;;;;;5034773;28;20395;-69
2023/02/09 07:38:40;;;;;;;6.07;3.40;;;-4.90;98.00;;;;;;5034949;28;20207;-70
2023/02/09 07:41:12;;;;;;;4.00;2.30;;;-4.60;98.00;;;;;;5034772;28;20207;-70
2023/02/09 07:43:39;;;;;;;5.43;2.85;;;-4.50;98.00;;;;;;5034854;28;20690;-71
2023/02/09 07:46:08;;;;;;;5.10;3.60;;;-4.30;98.00;;;;;;5034757;28;20204;-69
2023/02/09 07:48:37;;;;;;;6.57;2.95;;;-4.30;98.00;;;;;;5035906;28;20208;-70
2023/02/09 07:51:06;;;;;;;3.30;2.60;;;-4.20;98.00;;;;;;5036913;28;20266;-69
2023/02/09 07:53:33;;;;;;;6.60;3.60;;;-4.20;98.00;;;;;;5053459;28;20207;-69
2023/02/09 07:56:00;;;;;;;5.50;2.83;;;-4.10;98.00;;;;;;5054211;28;20212;-70
2023/02/09 07:58:28;;;;;;;4.85;3.50;;;-4.10;98.00;;;;;;5054557;28;20207;-70
2023/02/09 08:00:55;;;;;;;5.00;3.05;;;-4.10;98.00;;;;;;5054322;28;20269;-70
2023/02/09 08:03:24;;;;;;;3.47;2.35;;;-4.20;98.00;;;;;;5053157;28;20211;-70
2023/02/09 08:05:58;;;;;;;6.40;3.05;;;-4.10;98.00;;;;;;5054085;28;20214;-70
2023/02/09 08:08:25;;;;;;;4.07;3.25;;;-4.00;98.00;;;;;;5054398;28;20499;-70
2023/02/09 08:10:54;;;;;;;4.50;3.20;;;-4.00;98.00;;;;;;5054087;28;20699;-69
2023/02/09 08:13:22;;;;;;;2.95;2.72;;;-4.00;98.00;;;;;;5054293;28;20200;-70
2023/02/09 08:15:53;;;;;;;3.80;2.75;;;-3.90;98.00;;;;;;5052850;28;20366;-69
2023/02/09 08:18:23;;;;;;;5.60;3.15;;;-3.60;98.00;;;;;;5054601;28;20202;-69
2023/02/09 08:20:52;;;;;;;6.95;4.32;;;-3.40;98.00;;;;;;5055146;28;20204;-69
2023/02/09 08:23:25;;;;;;;4.75;2.72;;;-3.30;98.00;;;;;;5055054;28;20192;-69
2023/02/09 08:25:52;;;;;;;12.77;4.45;;;-3.40;98.00;;;;;;5055021;28;20211;-69
2023/02/09 08:28:20;;;;;;;8.43;3.97;;;-3.40;98.00;;;;;;5054175;28;20206;-68
2023/02/09 08:30:50;;;;;;;3.38;3.17;;;-3.50;98.00;;;;;;5053990;28;20633;-69
2023/02/09 08:33:17;;;;;;;4.85;3.63;;;-3.40;98.00;;;;;;5053940;28;20200;-70
2023/02/09 08:35:45;;;;;;;3.53;2.30;;;-3.30;98.00;;;;;;5053806;28;20799;-68
2023/02/09 08:38:12;;;;;;;7.32;3.75;;;-3.10;98.00;;;;;;5053740;28;20673;-69
2023/02/09 08:40:42;;;;;;;6.03;3.75;;;-3.00;98.00;;;;;;5053755;28;20297;-68
2023/02/09 08:43:11;;;;;;;4.03;3.40;;;-3.10;98.00;;;;;;5053982;28;20623;-71
2023/02/09 08:45:39;;;;;;;5.75;3.47;;;-3.00;98.00;;;;;;5051460;28;20222;-70
2023/02/09 08:48:08;;;;;;;7.55;4.15;;;-3.00;98.00;;;;;;5053658;28;20210;-70
2023/02/09 08:50:35;;;;;;;6.07;3.60;;;-2.90;98.00;;;;;;5053371;28;20261;-70
2023/02/09 08:53:04;;;;;;;8.20;4.18;;;-2.70;98.00;;;;;;5053483;28;20196;-70
2023/02/09 08:55:31;;;;;;;5.47;4.00;;;-2.60;98.00;;;;;;5053435;28;20206;-68
2023/02/09 08:58:00;;;;;;;5.13;3.17;;;-2.50;98.00;;;;;;5053352;28;20199;-70
2023/02/09 09:00:27;;;;;;;9.32;4.00;;;-2.30;98.00;;;;;;5053213;28;20429;-72
2023/02/09 09:02:54;;;;;;;4.97;3.58;;;-2.10;98.00;;;;;;5051829;28;20195;-66
2023/02/09 09:05:21;;;;;;;3.40;2.55;;;-2.00;98.00;;;;;;5052907;28;20560;-67
2023/02/09 09:07:48;;;;;;;7.13;2.88;;;-2.00;98.00;;;;;;5053050;28;20203;-68
2023/02/09 09:10:18;;;;;;;8.10;3.63;;;-2.00;98.00;;;;;;5053015;28;20234;-70
2023/02/09 09:12:46;;;;;;;4.35;2.63;;;-2.10;98.00;;;;;;5053018;28;20595;-68
2023/02/09 09:15:14;;;;;;;5.93;3.77;;;-2.10;98.00;;;;;;5051840;28;20195;-73
2023/02/09 09:17:41;;;;;;;14.43;3.88;;;-2.20;98.00;;;;;;5053183;28;20838;-69
2023/02/09 09:20:09;;;;;;;11.37;4.70;;;-2.10;98.00;;;;;;5052948;28;20215;-70
2023/02/09 09:22:37;;;;;;;5.75;3.50;;;-2.00;98.00;;;;;;5053196;28;20846;-69
2023/02/09 09:25:06;;;;;;;7.90;3.65;;;-1.90;98.00;;;;;;5052655;28;20693;-70
2023/02/09 09:27:35;;;;;;;5.60;3.60;;;-1.80;98.00;;;;;;5052984;28;20212;-70
2023/02/09 09:30:02;;;;;;;7.70;3.65;;;-1.60;98.00;;;;;;5052529;28;20513;-71
2023/02/09 09:32:32;;;;;;;10.23;4.22;;;-1.40;98.00;;;;;;5052456;28;20195;-69
2023/02/09 09:34:59;;;;;;;4.57;3.08;;;-1.20;98.00;;;;;;5052388;28;20578;-69
2023/02/09 09:37:27;;;;;;;3.25;2.50;;;-1.10;98.00;;;;;;5052577;28;20211;-69
2023/02/09 09:39:54;;;;;;;5.25;3.10;;;-1.00;98.00;;;;;;5052487;28;20211;-71
2023/02/09 09:42:24;;;;;;;5.28;3.70;;;-0.90;98.00;;;;;;5052605;28;20196;-71
2023/02/09 09:44:52;;;;;;;8.75;3.47;;;-0.80;98.00;;;;;;5052319;28;20200;-70
2023/02/09 09:47:33;;;;;;;3.13;2.92;;;-0.80;98.00;;;;;;5052281;28;20211;-70
2023/02/09 09:50:02;;;;;;;6.55;4.40;;;-0.90;98.00;;;;;;5052195;28;20272;-70
2023/02/09 09:52:31;;;;;;;5.68;3.67;;;;;;;;;;5052332;28;20199;-70
2023/02/09 09:55:01;;;;;;;3.43;2.83;;;-0.90;98.00;;;;;;5052232;28;20203;-72
2023/02/09 09:57:34;;;;;;;4.50;3.37;;;-0.80;98.00;;;;;;5052123;28;20486;-72
2023/02/09 10:00:03;;;;;;;6.10;3.70;;;-0.70;98.00;;;;;;5052208;28;20458;-70
2023/02/09 10:02:32;;;;;;;6.38;4.50;;;-0.50;98.00;;;;;;5051902;28;21094;-72
2023/02/09 10:05:10;;;;;;;5.70;3.87;;;-0.40;98.00;;;;;;5051953;28;20213;-69
2023/02/09 10:07:40;;;;;;;6.23;4.37;;;-0.20;98.00;;;;;;5052203;28;20466;-70
2023/02/09 10:10:15;;;;;;;8.10;5.00;;;-0.10;98.00;;;;;;5052018;28;20513;-70
2023/02/09 10:12:47;;;;;;;5.40;3.47;;;0.00;98.00;;;;;;5050717;28;20458;-69
2023/02/09 10:15:27;;;;;;;5.70;3.57;;;0.10;98.00;;;;;;5051785;28;20965;-72
2023/02/09 10:17:59;;;;;;;5.83;2.60;;;0.20;98.00;;;;;;5051553;28;20482;-73
2023/02/09 10:20:46;;;;;;;4.20;3.27;;;0.20;98.00;;;;;;5034792;28;20538;-74
2023/02/09 10:23:19;;;;;;;5.57;3.87;;;0.40;98.00;;;;;;5052046;28;20969;-71
2023/02/09 10:25:59;;;;;;;8.10;3.90;;;0.40;98.00;;;;;;5051624;28;20996;-71
2023/02/09 10:28:28;;;;;;;4.67;3.67;;;0.60;98.00;;;;;;5051733;28;20851;-72
2023/02/09 10:30:58;;;;;;;5.10;3.53;;;0.70;98.00;;;;;;5051281;28;20484;-69
2023/02/09 10:33:27;;;;;;;11.53;4.80;;;0.90;98.00;;;;;;5051558;28;20462;-72
2023/02/09 10:35:58;;;;;;;3.17;2.90;;;1.00;98.00;;;;;;5051396;28;20460;-71
2023/02/09 10:38:30;;;;;;;10.93;5.57;;;1.10;98.00;;;;;;5051569;28;20463;-71
2023/02/09 10:40:59;;;;;;;8.40;4.13;;;1.20;98.00;;;;;;5051573;28;20459;-72
2023/02/09 10:43:30;;;;;;;10.47;5.30;;;1.20;98.00;;;;;;5051265;28;20543;-71
2023/02/09 10:46:00;;;;;;;5.53;3.73;;;1.30;98.00;;;;;;5051111;28;20467;-72
2023/02/09 10:48:28;;;;;;;10.17;3.87;;;1.40;98.00;;;;;;5051336;28;20464;-69
2023/02/09 10:50:58;;;;;;;12.83;5.03;;;1.50;98.00;;;;;;5051025;28;20492;-72
2023/02/09 10:53:29;;;;;;;9.70;5.30;;;1.70;98.00;;;;;;5051524;28;20464;-74
2023/02/09 10:56:03;;;;;;;21.20;5.20;;;1.80;98.00;;;;;;5051052;28;20491;-71
2023/02/09 10:58:32;;;;;;;7.13;4.63;;;2.00;98.00;;;;;;5051083;28;20467;-72
2023/02/09 11:01:06;;;;;;;8.83;4.90;;;2.10;98.00;;;;;;5050915;28;20464;-70
2023/02/09 11:03:33;;;;;;;9.73;4.80;;;2.20;98.00;;;;;;5051216;28;20455;-70
2023/02/09 11:06:07;;;;;;;10.83;5.87;;;2.30;98.00;;;;;;5051121;28;20461;-71
2023/02/09 11:08:46;;;;;;;62.53;4.87;;;2.50;98.00;;;;;;5050546;28;20458;-70
2023/02/09 11:11:29;;;;;;;7.80;4.67;;;2.60;98.00;;;;;;5051018;28;20495;-75
2023/02/09 11:14:00;;;;;;;6.10;4.13;;;2.50;98.00;;;;;;5050744;28;20825;-73
2023/02/09 11:16:56;;;;;;;15.97;7.10;;;2.70;98.00;;;;;;5050805;28;20486;-76
2023/02/09 11:19:43;;;;;;;6.63;3.83;;;3.00;98.00;;;;;;5038074;28;20868;-70
2023/02/09 11:22:18;;;;;;;13.83;4.90;;;3.20;98.00;;;;;;5051515;28;20876;-71
2023/02/09 11:24:58;;;;;;;7.97;4.87;;;3.40;98.00;;;;;;5051133;28;20462;-69
2023/02/09 11:27:42;;;;;;;7.07;4.30;;;3.70;98.00;;;;;;5047458;28;20869;-71
2023/02/09 11:30:29;;;;;;;7.47;3.90;;;3.90;98.00;;;;;;5050791;28;20544;-75
2023/02/09 11:33:03;;;;;;;8.30;4.67;;;4.00;98.00;;;;;;5050611;28;20964;-73
2023/02/09 11:35:42;;;;;;;12.03;3.33;;;4.30;98.00;;;;;;5050685;28;20968;-76
2023/02/09 11:38:15;;;;;;;5.33;3.73;;;4.60;98.00;;;;;;5050757;28;20460;-72
2023/02/09 11:40:46;;;;;;;4.20;3.20;;;4.70;98.00;;;;;;5045211;28;20451;-72
2023/02/09 11:43:20;;;;;;;10.77;4.20;;;5.00;98.00;;;;;;5030882;28;20454;-75
2023/02/09 11:45:50;;;;;;;9.70;4.63;;;5.30;98.00;;;;;;5030445;28;20458;-72
2023/02/09 11:48:23;;;;;;;9.40;4.23;;;5.40;95.90;;;;;;5029437;28;20505;-72
2023/02/09 11:51:03;;;;;;;9.40;3.90;;;5.70;95.50;;;;;;5030422;28;20491;-74
2023/02/09 11:53:39;;;;;;;4.33;2.97;;;5.90;95.00;;;;;;5030592;28;20463;-72
2023/02/09 11:56:09;;;;;;;10.67;4.77;;;6.20;93.70;;;;;;5030504;28;20468;-73
2023/02/09 11:58:45;;;;;;;18.40;6.27;;;6.40;93.40;;;;;;5030866;28;20499;-73
2023/02/09 12:01:20;;;;;;;14.37;5.17;;;6.80;93.00;;;;;;5030901;28;20467;-73
2023/02/09 12:03:58;;;;;;;17.60;5.97;;;7.00;92.10;;;;;;5030229;28;20845;-74
2023/02/09 12:06:28;;;;;;;12.50;3.77;;;6.80;93.10;;;;;;5030302;28;20473;-72
2023/02/09 12:09:03;;;;;;;8.13;3.83;;;7.00;91.80;;;;;;5030733;28;20463;-77
2023/02/09 12:11:52;;;;;;;8.77;4.93;;;7.40;91.20;;;;;;5029397;28;20481;-78
2023/02/09 12:14:38;;;;;;;16.20;5.20;;;7.60;90.20;;;;;;5031048;28;20460;-76
2023/02/09 12:17:12;;;;;;;11.57;4.17;;;7.90;89.20;;;;;;5031543;28;20463;-74
2023/02/09 12:19:44;;;;;;;12.10;5.67;;;8.20;88.40;;;;;;5033033;28;20462;-71
2023/02/09 12:22:41;;;;;;;12.37;4.53;;;8.40;88.00;;;;;;5034221;28;20500;-74
2023/02/09 12:25:24;;;;;;;10.00;4.47;;;8.60;87.20;;;;;;5034142;28;20463;-72
2023/02/09 12:28:11;;;;;;;14.37;5.13;;;8.80;87.60;;;;;;5033902;28;20455;-74
2023/02/09 12:31:03;;;;;;;10.20;3.93;;;8.50;84.40;;;;;;5036340;28;20453;-78
2023/02/09 12:33:33;;;;;;;12.97;4.47;;;8.70;86.10;;;;;;5044652;28;20460;-74
2023/02/09 12:36:04;;;;;;;13.07;6.00;;;8.40;85.00;;;;;;5043412;28;21004;-75
2023/02/09 12:38:59;;;;;;;10.80;4.90;;;8.70;85.00;;;;;;5040205;28;20470;-72
2023/02/09 12:41:30;;;;;;;12.53;5.20;;;8.80;84.70;;;;;;5033480;28;20465;-72
2023/02/09 12:44:38;;;;;;;8.33;4.53;;;9.10;84.50;;;;;;5041541;28;20454;-74
2023/02/09 12:47:23;;;;;;;12.20;5.17;;;9.50;83.60;;;;;;5044625;28;20464;-74
2023/02/09 12:50:04;;;;;;;12.67;5.03;;;9.80;82.90;;;;;;5039600;28;20458;-68
2023/02/09 12:52:33;;;;;;;16.87;5.97;;;9.80;81.30;;;;;;5053459;28;20495;-65
2023/02/09 12:55:10;;;;;;;13.77;5.10;;;10.00;82.30;;;;;;5053427;28;20464;-74
2023/02/09 12:57:54;;;;;;;12.37;5.70;;;10.10;82.20;;;;;;5048522;28;20451;-75
2023/02/09 13:00:39;;;;;;;15.00;4.93;;;10.10;81.10;;;;;;5043933;28;20540;-72
2023/02/09 13:03:12;;;;;;;11.70;4.70;;;10.30;81.30;;;;;;5033723;28;20504;-73
2023/02/09 13:05:43;;;;;;;15.33;5.40;;;10.40;78.40;;;;;;5033779;28;20497;-70
2023/02/09 13:08:20;;;;;;;12.83;4.83;;;10.30;79.20;;;;;;5033846;28;20871;-72
2023/02/09 13:10:57;;;;;;;12.63;5.37;;;10.60;79.80;;;;;;5033717;28;20523;-69
2023/02/09 13:13:43;;;;;;;17.93;7.00;;;10.60;78.90;;;;;;5033736;28;20502;-70